| time (UTC) | temp F | wind direction | speed MPH | gust MPH | rain 1hr in | rain 24hr in | rain mn in | humidity % | barometer mb |
| 20260504185640 | 66 | 186 | 4.0 | 11.0 | 0.00 | 0.00 | 0.00 | 48 | 1007.4 |
| 20260504185441 | 66 | 183 | 4.0 | 11.0 | 0.00 | 0.00 | 0.00 | 48 | 1007.4 |
| 20260504185241 | 67 | 174 | 5.0 | 11.0 | 0.00 | 0.00 | 0.00 | 49 | 1007.5 |
| 20260504185042 | 67 | 152 | 5.0 | 11.0 | 0.00 | 0.00 | 0.00 | 49 | 1007.5 |
| 20260504184842 | 67 | 180 | 4.0 | 10.0 | 0.00 | 0.00 | 0.00 | 50 | 1007.5 |
| 20260504184641 | 67 | 225 | 4.0 | 10.0 | 0.00 | 0.00 | 0.00 | 49 | 1007.6 |
| 20260504184441 | 68 | 186 | 4.0 | 10.0 | 0.00 | 0.00 | 0.00 | 48 | 1007.6 |
| 20260504184240 | 68 | 194 | 4.0 | 8.0 | 0.00 | 0.00 | 0.00 | 47 | 1007.6 |
| 20260504184041 | 68 | 177 | 4.0 | 9.0 | 0.00 | 0.00 | 0.00 | 47 | 1007.7 |
| 20260504183841 | 67 | 175 | 4.0 | 9.0 | 0.00 | 0.00 | 0.00 | 48 | 1007.7 |
| 20260504183641 | 67 | 187 | 5.0 | 9.0 | 0.00 | 0.00 | 0.00 | 47 | 1007.6 |
| 20260504183441 | 67 | 184 | 5.0 | 9.0 | 0.00 | 0.00 | 0.00 | 46 | 1007.7 |
| 20260504183241 | 67 | 190 | 4.0 | 9.0 | 0.00 | 0.00 | 0.00 | 45 | 1007.7 |
| 20260504183041 | 67 | 195 | 4.0 | 9.0 | 0.00 | 0.00 | 0.00 | 45 | 1007.6 |
| 20260504182841 | 68 | 185 | 4.0 | 9.0 | 0.00 | 0.00 | 0.00 | 47 | 1007.7 |
| 20260504182641 | 67 | 249 | 4.0 | 9.0 | 0.00 | 0.00 | 0.00 | 47 | 1007.6 |
| 20260504182441 | 67 | 170 | 4.0 | 11.0 | 0.00 | 0.00 | 0.00 | 46 | 1007.6 |
| 20260504182241 | 67 | 109 | 5.0 | 11.0 | 0.00 | 0.00 | 0.00 | 45 | 1007.6 |
| 20260504182041 | 67 | 178 | 5.0 | 11.0 | 0.00 | 0.00 | 0.00 | 45 | 1007.6 |
| 20260504181842 | 67 | 163 | 5.0 | 12.0 | 0.00 | 0.00 | 0.00 | 46 | 1007.6 |
| 20260504181641 | 67 | 167 | 5.0 | 12.0 | 0.00 | 0.00 | 0.00 | 45 | 1007.7 |
| 20260504181441 | 67 | 288 | 5.0 | 12.0 | 0.00 | 0.00 | 0.00 | 46 | 1007.6 |
| 20260504181241 | 67 | 186 | 5.0 | 12.0 | 0.00 | 0.00 | 0.00 | 46 | 1007.6 |
| 20260504181042 | 67 | 175 | 6.0 | 12.0 | 0.00 | 0.00 | 0.00 | 45 | 1007.6 |
| 20260504180901 | 67 | 178 | 6.0 | 12.0 | 0.00 | 0.00 | 0.00 | 45 | 1007.7 |
| 20260504180642 | 67 | 155 | 5.0 | 11.0 | 0.00 | 0.00 | 0.00 | 44 | 1007.7 |
| 20260504180441 | 67 | 175 | 5.0 | 11.0 | 0.00 | 0.00 | 0.00 | 43 | 1007.7 |
| 20260504180242 | 67 | 177 | 5.0 | 11.0 | 0.00 | 0.00 | 0.00 | 43 | 1007.7 |
| 20260504180039 | 67 | 178 | 5.0 | 11.0 | 0.00 | 0.00 | 0.00 | 44 | 1007.7 |
| 20260504175839 | 67 | 225 | 5.0 | 11.0 | 0.00 | 0.00 | 0.00 | 44 | 1007.6 |
| 20260504175639 | 68 | 193 | 5.0 | 11.0 | 0.00 | 0.00 | 0.00 | 42 | 1007.6 |
| 20260504175439 | 67 | 276 | 4.0 | 11.0 | 0.00 | 0.00 | 0.00 | 42 | 1007.7 |
| 20260504175239 | 67 | 264 | 5.0 | 11.0 | 0.00 | 0.00 | 0.00 | 42 | 1007.7 |
| 20260504175039 | 67 | 192 | 5.0 | 11.0 | 0.00 | 0.00 | 0.00 | 43 | 1007.6 |
| 20260504174839 | 67 | 193 | 5.0 | 11.0 | 0.00 | 0.00 | 0.00 | 44 | 1007.7 |
| 20260504174638 | 67 | 242 | 4.0 | 9.0 | 0.00 | 0.00 | 0.00 | 45 | 1007.7 |
| 20260504174438 | 67 | 223 | 4.0 | 12.0 | 0.00 | 0.00 | 0.00 | 45 | 1007.7 |
| 20260504174239 | 67 | 88 | 4.0 | 12.0 | 0.00 | 0.00 | 0.00 | 44 | 1007.8 |
| 20260504174040 | 67 | 172 | 4.0 | 12.0 | 0.00 | 0.00 | 0.00 | 44 | 1007.9 |
| 20260504173839 | 67 | 211 | 4.0 | 12.0 | 0.00 | 0.00 | 0.00 | 45 | 1007.8 |
| 20260504173639 | 67 | 180 | 4.0 | 12.0 | 0.00 | 0.00 | 0.00 | 46 | 1007.8 |
| 20260504173439 | 67 | 191 | 4.0 | 11.0 | 0.00 | 0.00 | 0.00 | 44 | 1007.9 |
| 20260504173239 | 67 | 172 | 4.0 | 11.0 | 0.00 | 0.00 | 0.00 | 45 | 1007.8 |
| 20260504173039 | 67 | 206 | 4.0 | 11.0 | 0.00 | 0.00 | 0.00 | 43 | 1007.9 |
| 20260504172858 | 67 | 195 | 4.0 | 11.0 | 0.00 | 0.00 | 0.00 | 45 | 1007.9 |
| 20260504172639 | 67 | 275 | 4.0 | 11.0 | 0.00 | 0.00 | 0.00 | 44 | 1007.9 |
| 20260504172439 | 67 | 182 | 4.0 | 12.0 | 0.00 | 0.00 | 0.00 | 43 | 1008.0 |
| 20260504172239 | 67 | 165 | 4.0 | 12.0 | 0.00 | 0.00 | 0.00 | 44 | 1007.9 |
| 20260504172040 | 67 | 192 | 4.0 | 12.0 | 0.00 | 0.00 | 0.00 | 43 | 1008.0 |
| 20260504171839 | 66 | 190 | 4.0 | 12.0 | 0.00 | 0.00 | 0.00 | 45 | 1008.1 |
| 20260504171640 | 66 | 280 | 4.0 | 12.0 | 0.00 | 0.00 | 0.00 | 44 | 1008.1 |
| 20260504171440 | 66 | 227 | 5.0 | 12.0 | 0.00 | 0.00 | 0.00 | 44 | 1008.0 |
| 20260504171239 | 66 | 167 | 5.0 | 10.0 | 0.00 | 0.00 | 0.00 | 44 | 1008.1 |
| 20260504171039 | 66 | 183 | 5.0 | 11.0 | 0.00 | 0.00 | 0.00 | 44 | 1008.1 |
| 20260504170859 | 66 | 169 | 5.0 | 11.0 | 0.00 | 0.00 | 0.00 | 43 | 1008.2 |
| 20260504170639 | 66 | 173 | 5.0 | 11.0 | 0.00 | 0.00 | 0.00 | 43 | 1008.2 |
| 20260504170439 | 66 | 171 | 5.0 | 11.0 | 0.00 | 0.00 | 0.00 | 43 | 1008.3 |
| 20260504170240 | 66 | 189 | 4.0 | 11.0 | 0.00 | 0.00 | 0.00 | 43 | 1008.2 |
| 20260504160433 | 66 | 292 | 4.0 | 13.0 | 0.00 | 0.00 | 0.00 | 39 | 1008.9 |
| 20260504160234 | 66 | 172 | 4.0 | 13.0 | 0.00 | 0.00 | 0.00 | 39 | 1008.9 |
| 20260504151020 | 66 | 50 | 4.0 | 9.0 | 0.00 | 0.00 | 0.00 | 40 | 1009.5 |
| 20260504150853 | 65 | 202 | 4.0 | 9.0 | 0.00 | 0.00 | 0.00 | 40 | 1009.4 |
| 20260504150620 | 65 | 186 | 4.0 | 9.0 | 0.00 | 0.00 | 0.00 | 39 | 1009.5 |
| 20260504150420 | 65 | 200 | 3.0 | 9.0 | 0.00 | 0.00 | 0.00 | 40 | 1009.6 |
| 20260504150220 | 66 | 198 | 4.0 | 9.0 | 0.00 | 0.00 | 0.00 | 39 | 1009.6 |
| 20260504141215 | 63 | 166 | 4.0 | 10.0 | 0.00 | 0.00 | 0.00 | 43 | 1009.6 |
| 20260504141015 | 64 | 205 | 4.0 | 10.0 | 0.00 | 0.00 | 0.00 | 43 | 1009.6 |
| 20260504140815 | 63 | 201 | 4.0 | 9.0 | 0.00 | 0.00 | 0.00 | 44 | 1009.6 |
| 20260504140616 | 63 | 197 | 4.0 | 9.0 | 0.00 | 0.00 | 0.00 | 44 | 1009.6 |
| 20260504140415 | 64 | 197 | 4.0 | 9.0 | 0.00 | 0.00 | 0.00 | 44 | 1009.6 |
| 20260504140215 | 64 | 182 | 4.0 | 8.0 | 0.00 | 0.00 | 0.00 | 43 | 1009.6 |
| 20260504130804 | 60 | 236 | 3.0 | 9.0 | 0.00 | 0.00 | 0.00 | 49 | 1010.0 |
| 20260504130603 | 60 | 164 | 3.0 | 9.0 | 0.00 | 0.00 | 0.00 | 50 | 1010.1 |
| 20260504130404 | 60 | 184 | 3.0 | 9.0 | 0.00 | 0.00 | 0.00 | 50 | 1010.1 |
| 20260504130204 | 60 | 203 | 3.0 | 9.0 | 0.00 | 0.00 | 0.00 | 50 | 1010.0 |
| 20260504120155 | 55 | 184 | 2.0 | 7.0 | 0.00 | 0.00 | 0.00 | 57 | 1010.2 |
| 20260504110550 | 52 | 174 | 2.0 | 5.0 | 0.00 | 0.00 | 0.00 | 59 | 1010.2 |
| 20260504110351 | 51 | 206 | 2.0 | 5.0 | 0.00 | 0.00 | 0.00 | 59 | 1010.1 |
| 20260504110150 | 51 | 166 | 2.0 | 5.0 | 0.00 | 0.00 | 0.00 | 59 | 1010.2 |
| 20260504100543 | 49 | 169 | 2.0 | 4.0 | 0.00 | 0.00 | 0.00 | 61 | 1010.0 |
| 20260504100341 | 48 | 235 | 2.0 | 4.0 | 0.00 | 0.00 | 0.00 | 61 | 1009.9 |
| 20260504100142 | 48 | 188 | 2.0 | 4.0 | 0.00 | 0.00 | 0.00 | 61 | 1010.0 |
| 20260504081926 | 50 | 171 | 2.0 | 5.0 | 0.00 | 0.00 | 0.00 | 52 | 1009.3 |
| 20260504081726 | 50 | 217 | 2.0 | 5.0 | 0.00 | 0.00 | 0.00 | 52 | 1009.3 |
| 20260504081525 | 50 | 213 | 1.0 | 5.0 | 0.00 | 0.00 | 0.00 | 52 | 1009.4 |
| 20260504081325 | 50 | 236 | 1.0 | 5.0 | 0.00 | 0.00 | 0.00 | 53 | 1009.4 |
| 20260504081125 | 50 | 210 | 1.0 | 3.0 | 0.00 | 0.00 | 0.00 | 53 | 1009.4 |
| 20260504080925 | 50 | 0 | 1.0 | 5.0 | 0.00 | 0.00 | 0.00 | 53 | 1009.3 |
| 20260504080723 | 50 | 194 | 1.0 | 5.0 | 0.00 | 0.00 | 0.00 | 53 | 1009.3 |
| 20260504080522 | 50 | 222 | 2.0 | 5.0 | 0.00 | 0.00 | 0.00 | 53 | 1009.3 |
| 20260504080323 | 50 | 247 | 2.0 | 7.0 | 0.00 | 0.00 | 0.00 | 53 | 1009.2 |
| 20260504080123 | 50 | 197 | 2.0 | 7.0 | 0.00 | 0.00 | 0.00 | 53 | 1009.2 |
| 20260504070317 | 50 | 231 | 1.0 | 4.0 | 0.00 | 0.00 | 0.00 | 54 | 1008.8 |
| 20260504070118 | 50 | 250 | 1.0 | 4.0 | 0.00 | 0.00 | 0.00 | 53 | 1008.8 |
| 20260504060112 | 49 | 0 | 1.0 | 2.0 | 0.00 | 0.00 | 0.00 | 62 | 1008.9 |
| 20260504050456 | 49 | 244 | 1.0 | 2.0 | 0.00 | 0.00 | 0.00 | 60 | 1008.6 |
| 20260504050314 | 49 | 194 | 1.0 | 2.0 | 0.00 | 0.00 | 0.00 | 60 | 1008.6 |
| 20260504045853 | 49 | 191 | 1.0 | 2.0 | 0.00 | 0.00 | 0.00 | 60 | 1008.6 |
| 20260504045653 | 49 | 195 | 1.0 | 2.0 | 0.00 | 0.00 | 0.00 | 60 | 1008.6 |
| 20260504045454 | 50 | 189 | 1.0 | 2.0 | 0.00 | 0.00 | 0.00 | 60 | 1008.6 |
| 20260504045254 | 50 | 228 | 1.0 | 3.0 | 0.00 | 0.00 | 0.00 | 60 | 1008.6 |
| 20260504045054 | 50 | 197 | 1.0 | 3.0 | 0.00 | 0.00 | 0.00 | 60 | 1008.6 |
| 20260504044853 | 49 | 203 | 1.0 | 3.0 | 0.00 | 0.00 | 0.00 | 60 | 1008.6 |
| 20260504044653 | 49 | 188 | 1.0 | 3.0 | 0.00 | 0.00 | 0.00 | 60 | 1008.6 |
| 20260504044454 | 49 | 207 | 1.0 | 3.0 | 0.00 | 0.00 | 0.00 | 60 | 1008.6 |
| 20260504044254 | 49 | 179 | 1.0 | 3.0 | 0.00 | 0.00 | 0.00 | 60 | 1008.5 |
| 20260504044053 | 49 | 206 | 1.0 | 3.0 | 0.00 | 0.00 | 0.00 | 61 | 1008.5 |
| 20260504043855 | 49 | 195 | 1.0 | 3.0 | 0.00 | 0.00 | 0.00 | 61 | 1008.5 |
| 20260504043655 | 49 | 203 | 1.0 | 3.0 | 0.00 | 0.00 | 0.00 | 61 | 1008.5 |
| 20260504043454 | 49 | 193 | 1.0 | 2.0 | 0.00 | 0.00 | 0.00 | 61 | 1008.5 |
| 20260504043254 | 49 | 185 | 1.0 | 2.0 | 0.00 | 0.00 | 0.00 | 61 | 1008.5 |
| 20260504043054 | 49 | 185 | 1.0 | 2.0 | 0.00 | 0.00 | 0.00 | 62 | 1008.5 |
| 20260504042854 | 48 | 207 | 1.0 | 2.0 | 0.00 | 0.00 | 0.00 | 62 | 1008.5 |
| 20260504042654 | 48 | 206 | 0.0 | 2.0 | 0.00 | 0.00 | 0.00 | 62 | 1008.5 |
| 20260504042454 | 48 | 170 | 1.0 | 2.0 | 0.00 | 0.00 | 0.00 | 61 | 1008.4 |
| 20260504042254 | 48 | 205 | 1.0 | 2.0 | 0.00 | 0.00 | 0.00 | 62 | 1008.5 |
| 20260504042055 | 48 | 206 | 1.0 | 2.0 | 0.00 | 0.00 | 0.00 | 61 | 1008.5 |
| 20260504041854 | 48 | 234 | 1.0 | 2.0 | 0.00 | 0.00 | 0.00 | 61 | 1008.5 |
| 20260504041654 | 48 | 183 | 1.0 | 2.0 | 0.00 | 0.00 | 0.00 | 61 | 1008.4 |
| 20260504041454 | 48 | 249 | 1.0 | 2.0 | 0.00 | 0.00 | 0.00 | 60 | 1008.4 |
| 20260504041254 | 48 | 0 | 0.0 | 2.0 | 0.00 | 0.00 | 0.00 | 60 | 1008.4 |
| 20260504041054 | 48 | 199 | 0.0 | 1.0 | 0.00 | 0.00 | 0.00 | 59 | 1008.4 |
| 20260504040855 | 48 | 227 | 0.0 | 1.0 | 0.00 | 0.00 | 0.00 | 60 | 1008.4 |
| 20260504040653 | 48 | 203 | 0.0 | 1.0 | 0.00 | 0.00 | 0.00 | 60 | 1008.4 |
| 20260504040453 | 48 | 0 | 0.0 | 2.0 | 0.00 | 0.00 | 0.00 | 60 | 1008.4 |
| 20260504040254 | 48 | 0 | 0.0 | 2.0 | 0.00 | 0.00 | 0.00 | 59 | 1008.4 |
| 20260504040053 | 48 | 0 | 0.0 | 2.0 | 0.00 | 0.00 | 0.00 | 59 | 1008.4 |
| 20260504035853 | 48 | 198 | 0.0 | 2.0 | 0.00 | 0.00 | 0.00 | 59 | 1008.4 |
| 20260504035653 | 48 | 0 | 0.0 | 2.0 | 0.00 | 0.00 | 0.00 | 59 | 1008.4 |
| 20260504035451 | 47 | 200 | 0.0 | 2.0 | 0.00 | 0.00 | 0.00 | 59 | 1008.4 |
| 20260504035250 | 47 | 0 | 1.0 | 2.0 | 0.00 | 0.00 | 0.00 | 59 | 1008.4 |
| 20260504035048 | 47 | 223 | 1.0 | 2.0 | 0.00 | 0.00 | 0.00 | 59 | 1008.3 |
| 20260504034848 | 47 | 248 | 1.0 | 2.0 | 0.00 | 0.00 | 0.00 | 60 | 1008.3 |
| 20260504034648 | 47 | 211 | 1.0 | 2.0 | 0.00 | 0.00 | 0.00 | 60 | 1008.3 |
| 20260504034448 | 47 | 215 | 1.0 | 2.0 | 0.00 | 0.00 | 0.00 | 60 | 1008.4 |
| 20260504034248 | 46 | 234 | 1.0 | 2.0 | 0.00 | 0.00 | 0.00 | 60 | 1008.3 |
| 20260504034048 | 46 | 224 | 0.0 | 2.0 | 0.00 | 0.00 | 0.00 | 62 | 1008.3 |
| 20260504033848 | 46 | 0 | 0.0 | 2.0 | 0.00 | 0.00 | 0.00 | 63 | 1008.3 |
| 20260504033649 | 46 | 234 | 0.0 | 1.0 | 0.00 | 0.00 | 0.00 | 63 | 1008.3 |
| 20260504033448 | 46 | 0 | 0.0 | 1.0 | 0.00 | 0.00 | 0.00 | 64 | 1008.2 |
| 20260504033248 | 46 | 0 | 0.0 | 1.0 | 0.00 | 0.00 | 0.00 | 64 | 1008.2 |
| 20260504033049 | 46 | 345 | 0.0 | 1.0 | 0.00 | 0.00 | 0.00 | 64 | 1008.2 |
| 20260504032848 | 46 | 292 | 0.0 | 1.0 | 0.00 | 0.00 | 0.00 | 64 | 1008.2 |
| 20260504032648 | 46 | 0 | 0.0 | 1.0 | 0.00 | 0.00 | 0.00 | 63 | 1008.2 |
| 20260504032448 | 46 | 0 | 0.0 | 1.0 | 0.00 | 0.00 | 0.00 | 63 | 1008.2 |
| 20260504032308 | 46 | 298 | 0.0 | 1.0 | 0.00 | 0.00 | 0.00 | 63 | 1008.2 |
| 20260504032049 | 46 | 0 | 0.0 | 1.0 | 0.00 | 0.00 | 0.00 | 63 | 1008.3 |
| 20260504031848 | 46 | 0 | 0.0 | 1.0 | 0.00 | 0.00 | 0.00 | 62 | 1008.3 |
| 20260504031648 | 46 | 0 | 0.0 | 1.0 | 0.00 | 0.00 | 0.00 | 61 | 1008.3 |
| 20260504031448 | 47 | 0 | 0.0 | 1.0 | 0.00 | 0.00 | 0.00 | 61 | 1008.2 |
| 20260504031248 | 47 | 0 | 0.0 | 1.0 | 0.00 | 0.00 | 0.00 | 61 | 1008.3 |
| 20260504031048 | 47 | 0 | 0.0 | 1.0 | 0.00 | 0.00 | 0.00 | 60 | 1008.3 |
| 20260504030848 | 47 | 0 | 0.0 | 1.0 | 0.00 | 0.00 | 0.00 | 60 | 1008.2 |
| 20260504030648 | 47 | 0 | 0.0 | 0.0 | 0.00 | 0.00 | 0.00 | 57 | 1008.3 |
| 20260504030449 | 47 | 0 | 0.0 | 1.0 | 0.00 | 0.00 | 0.00 | 58 | 1008.3 |
| 20260504030249 | 47 | 0 | 0.0 | 2.0 | 0.00 | 0.00 | 0.00 | 59 | 1008.3 |
| 20260504030048 | 48 | 0 | 0.0 | 2.0 | 0.00 | 0.00 | 0.00 | 60 | 1008.3 |
| 20260504025848 | 48 | 0 | 0.0 | 2.0 | 0.00 | 0.00 | 0.00 | 60 | 1008.3 |
| 20260504025649 | 48 | 0 | 0.0 | 2.0 | 0.00 | 0.00 | 0.00 | 59 | 1008.3 |
| 20260504025448 | 48 | 0 | 0.0 | 2.0 | 0.00 | 0.00 | 0.00 | 58 | 1008.3 |
| 20260504025307 | 48 | 0 | 0.0 | 1.0 | 0.00 | 0.00 | 0.00 | 57 | 1008.2 |
| 20260504025048 | 48 | 0 | 0.0 | 1.0 | 0.00 | 0.00 | 0.00 | 57 | 1008.2 |
| 20260504024848 | 48 | 0 | 0.0 | 1.0 | 0.00 | 0.00 | 0.00 | 56 | 1008.2 |
| 20260504024648 | 49 | 0 | 0.0 | 1.0 | 0.00 | 0.00 | 0.00 | 55 | 1008.2 |
| 20260504024448 | 49 | 0 | 0.0 | 1.0 | 0.00 | 0.00 | 0.00 | 55 | 1008.2 |
| 20260504024248 | 49 | 0 | 0.0 | 1.0 | 0.00 | 0.00 | 0.00 | 54 | 1008.2 |
| 20260504024046 | 49 | 31 | 0.0 | 1.0 | 0.00 | 0.00 | 0.00 | 53 | 1008.2 |
| 20260504023845 | 49 | 0 | 0.0 | 0.0 | 0.00 | 0.00 | 0.00 | 52 | 1008.3 |
| 20260504023643 | 50 | 0 | 0.0 | 1.0 | 0.00 | 0.00 | 0.00 | 52 | 1008.3 |
| 20260504023439 | 50 | 0 | 0.0 | 1.0 | 0.00 | 0.00 | 0.00 | 53 | 1008.3 |
| 20260504023239 | 50 | 0 | 0.0 | 2.0 | 0.00 | 0.00 | 0.00 | 54 | 1008.4 |
| 20260504023040 | 50 | 0 | 0.0 | 2.0 | 0.00 | 0.00 | 0.00 | 51 | 1008.4 |
| 20260504022840 | 50 | 0 | 0.0 | 2.0 | 0.00 | 0.00 | 0.00 | 50 | 1008.4 |
| 20260504022640 | 51 | 0 | 0.0 | 2.0 | 0.00 | 0.00 | 0.00 | 48 | 1008.3 |
| 20260504022439 | 51 | 0 | 0.0 | 2.0 | 0.00 | 0.00 | 0.00 | 49 | 1008.3 |
| 20260504022304 | 51 | 221 | 0.0 | 2.0 | 0.00 | 0.00 | 0.00 | 51 | 1008.3 |
| 20260504022040 | 51 | 0 | 0.0 | 1.0 | 0.00 | 0.00 | 0.00 | 48 | 1008.3 |
| 20260504021840 | 51 | 0 | 0.0 | 3.0 | 0.00 | 0.00 | 0.00 | 47 | 1008.3 |
| 20260504021640 | 51 | 0 | 0.0 | 3.0 | 0.00 | 0.00 | 0.00 | 50 | 1008.3 |
| 20260504021440 | 52 | 310 | 0.0 | 3.0 | 0.00 | 0.00 | 0.00 | 47 | 1008.3 |
| 20260504021240 | 52 | 0 | 1.0 | 3.0 | 0.00 | 0.00 | 0.00 | 47 | 1008.3 |
| 20260504021040 | 52 | 0 | 1.0 | 3.0 | 0.00 | 0.00 | 0.00 | 45 | 1008.3 |
| 20260504020841 | 52 | 247 | 1.0 | 3.0 | 0.00 | 0.00 | 0.00 | 44 | 1008.3 |
| 20260504020640 | 52 | 0 | 1.0 | 3.0 | 0.00 | 0.00 | 0.00 | 44 | 1008.3 |
| 20260504020441 | 52 | 212 | 2.0 | 3.0 | 0.00 | 0.00 | 0.00 | 44 | 1008.3 |
| 20260504020240 | 52 | 233 | 2.0 | 3.0 | 0.00 | 0.00 | 0.00 | 44 | 1008.3 |
| 20260504020041 | 52 | 220 | 2.0 | 3.0 | 0.00 | 0.00 | 0.00 | 44 | 1008.2 |
| 20260504015837 | 52 | 243 | 1.0 | 3.0 | 0.00 | 0.00 | 0.00 | 44 | 1008.2 |
| 20260504015634 | 52 | 241 | 1.0 | 3.0 | 0.00 | 0.00 | 0.00 | 45 | 1008.2 |
| 20260504015432 | 52 | 251 | 1.0 | 3.0 | 0.00 | 0.00 | 0.00 | 46 | 1008.2 |
| 20260504015229 | 52 | 199 | 1.0 | 2.0 | 0.00 | 0.00 | 0.00 | 46 | 1008.2 |
| 20260504015028 | 52 | 194 | 1.0 | 2.0 | 0.00 | 0.00 | 0.00 | 46 | 1008.2 |
| 20260504014829 | 52 | 236 | 1.0 | 3.0 | 0.00 | 0.00 | 0.00 | 46 | 1008.2 |
| 20260504014628 | 52 | 286 | 1.0 | 3.0 | 0.00 | 0.00 | 0.00 | 45 | 1008.2 |
| 20260504014426 | 52 | 233 | 1.0 | 4.0 | 0.00 | 0.00 | 0.00 | 45 | 1008.2 |
| 20260504014300 | 52 | 317 | 2.0 | 4.0 | 0.00 | 0.00 | 0.00 | 45 | 1008.2 |
| 20260504014026 | 52 | 217 | 2.0 | 4.0 | 0.00 | 0.00 | 0.00 | 45 | 1008.2 |
| 20260504013826 | 52 | 235 | 2.0 | 4.0 | 0.00 | 0.00 | 0.00 | 43 | 1008.1 |
| 20260504013626 | 52 | 233 | 2.0 | 4.0 | 0.00 | 0.00 | 0.00 | 44 | 1008.1 |
| 20260504013425 | 52 | 261 | 2.0 | 4.0 | 0.00 | 0.00 | 0.00 | 45 | 1008.1 |
| 20260504013301 | 52 | 219 | 2.0 | 4.0 | 0.00 | 0.00 | 0.00 | 44 | 1008.1 |
| 20260504013027 | 52 | 262 | 1.0 | 4.0 | 0.00 | 0.00 | 0.00 | 45 | 1008.0 |
| 20260504012826 | 52 | 218 | 1.0 | 2.0 | 0.00 | 0.00 | 0.00 | 45 | 1008.0 |
| 20260504012626 | 52 | 211 | 1.0 | 2.0 | 0.00 | 0.00 | 0.00 | 48 | 1008.0 |
| 20260504012426 | 52 | 260 | 1.0 | 2.0 | 0.00 | 0.00 | 0.00 | 45 | 1007.9 |
| 20260504012227 | 52 | 242 | 1.0 | 2.0 | 0.00 | 0.00 | 0.00 | 46 | 1007.9 |
| 20260504012028 | 52 | 205 | 1.0 | 2.0 | 0.00 | 0.00 | 0.00 | 44 | 1007.9 |
| 20260504011828 | 52 | 213 | 0.0 | 2.0 | 0.00 | 0.00 | 0.00 | 45 | 1007.9 |
| 20260504011627 | 52 | 196 | 0.0 | 2.0 | 0.00 | 0.00 | 0.00 | 43 | 1007.9 |
| 20260504011428 | 52 | 0 | 0.0 | 1.0 | 0.00 | 0.00 | 0.00 | 43 | 1007.8 |
| 20260504011227 | 52 | 0 | 0.0 | 1.0 | 0.00 | 0.00 | 0.00 | 42 | 1007.8 |
| 20260504011027 | 53 | 0 | 0.0 | 2.0 | 0.00 | 0.00 | 0.00 | 42 | 1007.8 |
| 20260504010827 | 53 | 0 | 0.0 | 2.0 | 0.00 | 0.00 | 0.00 | 42 | 1007.8 |
| 20260504010628 | 53 | 0 | 1.0 | 2.0 | 0.00 | 0.00 | 0.00 | 42 | 1007.8 |
| 20260504010427 | 53 | 0 | 1.0 | 2.0 | 0.00 | 0.00 | 0.00 | 42 | 1007.8 |
| 20260504010227 | 53 | 272 | 1.0 | 2.0 | 0.00 | 0.00 | 0.00 | 42 | 1007.7 |
| 20260504010028 | 53 | 212 | 1.0 | 2.0 | 0.00 | 0.00 | 0.00 | 42 | 1007.7 |
| 20260504005828 | 53 | 0 | 1.0 | 2.0 | 0.00 | 0.00 | 0.00 | 42 | 1007.7 |
| 20260504005628 | 53 | 208 | 1.0 | 2.0 | 0.00 | 0.00 | 0.00 | 42 | 1007.6 |
| 20260504005428 | 53 | 199 | 1.0 | 2.0 | 0.00 | 0.00 | 0.00 | 40 | 1007.6 |
| 20260504005228 | 53 | 202 | 1.0 | 2.0 | 0.00 | 0.00 | 0.00 | 40 | 1007.6 |
| 20260504005028 | 53 | 231 | 0.0 | 2.0 | 0.00 | 0.00 | 0.00 | 41 | 1007.6 |
| 20260504004828 | 53 | 242 | 0.0 | 2.0 | 0.00 | 0.00 | 0.00 | 41 | 1007.6 |
| 20260504004628 | 53 | 220 | 0.0 | 1.0 | 0.00 | 0.00 | 0.00 | 42 | 1007.6 |
| 20260504004428 | 54 | 277 | 0.0 | 1.0 | 0.00 | 0.00 | 0.00 | 41 | 1007.5 |
| 20260504004228 | 54 | 0 | 0.0 | 2.0 | 0.00 | 0.00 | 0.00 | 41 | 1007.5 |
| 20260504004027 | 54 | 0 | 0.0 | 2.0 | 0.00 | 0.00 | 0.00 | 40 | 1007.5 |
| 20260504003828 | 54 | 0 | 1.0 | 2.0 | 0.00 | 0.00 | 0.00 | 41 | 1007.4 |
| 20260504003628 | 54 | 0 | 1.0 | 2.0 | 0.00 | 0.00 | 0.00 | 41 | 1007.4 |
| 20260504003427 | 54 | 231 | 1.0 | 2.0 | 0.00 | 0.00 | 0.00 | 39 | 1007.4 |
| 20260504003256 | 54 | 244 | 1.0 | 2.0 | 0.00 | 0.00 | 0.00 | 39 | 1007.4 |
| 20260504003026 | 55 | 211 | 0.0 | 2.0 | 0.00 | 0.00 | 0.00 | 39 | 1007.3 |
| 20260504002825 | 55 | 224 | 0.0 | 2.0 | 0.00 | 0.00 | 0.00 | 38 | 1007.3 |
| 20260504002622 | 55 | 254 | 0.0 | 2.0 | 0.00 | 0.00 | 0.00 | 38 | 1007.2 |
| 20260504002421 | 55 | 0 | 0.0 | 2.0 | 0.00 | 0.00 | 0.00 | 37 | 1007.2 |
| 20260504002220 | 55 | 0 | 0.0 | 2.0 | 0.00 | 0.00 | 0.00 | 38 | 1007.2 |
| 20260504002020 | 55 | 0 | 0.0 | 2.0 | 0.00 | 0.00 | 0.00 | 37 | 1007.1 |
| 20260504001818 | 55 | 241 | 1.0 | 2.0 | 0.00 | 0.00 | 0.00 | 37 | 1007.1 |
| 20260504001618 | 55 | 236 | 0.0 | 2.0 | 0.00 | 0.00 | 0.00 | 37 | 1007.1 |
| 20260504001418 | 55 | 199 | 0.0 | 4.0 | 0.00 | 0.00 | 0.00 | 37 | 1007.1 |
| 20260504001218 | 55 | 0 | 1.0 | 4.0 | 0.00 | 0.00 | 0.00 | 37 | 1007.1 |
| 20260504001018 | 56 | 231 | 1.0 | 4.0 | 0.00 | 0.00 | 0.00 | 37 | 1007.1 |
| 20260504000815 | 56 | 0 | 1.0 | 4.0 | 0.00 | 0.00 | 0.00 | 37 | 1007.0 |
| 20260504000611 | 56 | 256 | 2.0 | 4.0 | 0.00 | 0.00 | 0.00 | 36 | 1007.0 |
| 20260504000409 | 56 | 236 | 2.0 | 4.0 | 0.00 | 0.00 | 0.00 | 36 | 1007.0 |
| 20260504000209 | 56 | 257 | 2.0 | 4.0 | 0.00 | 0.00 | 0.00 | 35 | 1006.9 |
| 20260504000009 | 56 | 241 | 2.0 | 4.0 | 0.00 | 0.00 | 0.00 | 35 | 1006.9 |
| 20260503235809 | 56 | 249 | 1.0 | 4.0 | 0.00 | 0.00 | 0.00 | 35 | 1006.9 |
| 20260503235610 | 56 | 243 | 1.0 | 3.0 | 0.00 | 0.00 | 0.00 | 35 | 1006.9 |
| 20260503235409 | 56 | 264 | 1.0 | 4.0 | 0.00 | 0.00 | 0.00 | 35 | 1006.9 |
| 20260503235209 | 56 | 283 | 1.0 | 4.0 | 0.00 | 0.00 | 0.00 | 35 | 1006.9 |
| 20260503235009 | 56 | 282 | 1.0 | 5.0 | 0.00 | 0.00 | 0.00 | 35 | 1006.8 |
| 20260503234809 | 57 | 286 | 1.0 | 5.0 | 0.00 | 0.00 | 0.00 | 34 | 1006.8 |
| 20260503234609 | 57 | 252 | 1.0 | 5.0 | 0.00 | 0.00 | 0.00 | 34 | 1006.8 |
| 20260503234409 | 57 | 248 | 2.0 | 5.0 | 0.00 | 0.00 | 0.00 | 34 | 1006.8 |
| 20260503234209 | 57 | 0 | 2.0 | 5.0 | 0.00 | 0.00 | 0.00 | 33 | 1006.8 |
| 20260503234009 | 57 | 215 | 2.0 | 5.0 | 0.00 | 0.00 | 0.00 | 34 | 1006.8 |
| 20260503233810 | 57 | 243 | 2.0 | 5.0 | 0.00 | 0.00 | 0.00 | 33 | 1006.7 |
| 20260503233609 | 57 | 262 | 2.0 | 5.0 | 0.00 | 0.00 | 0.00 | 33 | 1006.7 |
| 20260503233407 | 57 | 305 | 1.0 | 4.0 | 0.00 | 0.00 | 0.00 | 33 | 1006.7 |
| 20260503233206 | 57 | 293 | 2.0 | 9.0 | 0.00 | 0.00 | 0.00 | 33 | 1006.6 |
| 20260503233006 | 58 | 177 | 2.0 | 9.0 | 0.00 | 0.00 | 0.00 | 33 | 1006.6 |
| 20260503232806 | 58 | 0 | 2.0 | 9.0 | 0.00 | 0.00 | 0.00 | 33 | 1006.6 |
| 20260503232606 | 58 | 0 | 2.0 | 9.0 | 0.00 | 0.00 | 0.00 | 32 | 1006.6 |
| 20260503232404 | 58 | 244 | 2.0 | 9.0 | 0.00 | 0.00 | 0.00 | 31 | 1006.6 |
| 20260503232203 | 58 | 232 | 2.0 | 8.0 | 0.00 | 0.00 | 0.00 | 32 | 1006.5 |
| 20260503232004 | 58 | 196 | 2.0 | 7.0 | 0.00 | 0.00 | 0.00 | 32 | 1006.5 |
| 20260503231801 | 58 | 237 | 2.0 | 6.0 | 0.00 | 0.00 | 0.00 | 32 | 1006.5 |
| 20260503231601 | 58 | 239 | 2.0 | 4.0 | 0.00 | 0.00 | 0.00 | 32 | 1006.5 |
| 20260503231401 | 58 | 288 | 2.0 | 4.0 | 0.00 | 0.00 | 0.00 | 32 | 1006.5 |
| 20260503231201 | 58 | 243 | 2.0 | 5.0 | 0.00 | 0.00 | 0.00 | 32 | 1006.4 |
| 20260503230959 | 58 | 194 | 2.0 | 7.0 | 0.00 | 0.00 | 0.00 | 32 | 1006.4 |
| 20260503230759 | 58 | 208 | 2.0 | 7.0 | 0.00 | 0.00 | 0.00 | 32 | 1006.4 |
| 20260503230559 | 58 | 345 | 2.0 | 7.0 | 0.00 | 0.00 | 0.00 | 31 | 1006.4 |
| 20260503230359 | 58 | 65 | 2.0 | 7.0 | 0.00 | 0.00 | 0.00 | 31 | 1006.4 |
| 20260503230159 | 58 | 283 | 2.0 | 7.0 | 0.00 | 0.00 | 0.00 | 31 | 1006.4 |
| 20260503225958 | 59 | 199 | 2.0 | 6.0 | 0.00 | 0.00 | 0.00 | 31 | 1006.4 |
| 20260503225759 | 59 | 254 | 2.0 | 6.0 | 0.00 | 0.00 | 0.00 | 30 | 1006.4 |
| 20260503225600 | 59 | 242 | 2.0 | 6.0 | 0.00 | 0.00 | 0.00 | 30 | 1006.4 |
| 20260503225359 | 59 | 245 | 2.0 | 6.0 | 0.00 | 0.00 | 0.00 | 31 | 1006.4 |
| 20260503225159 | 59 | 284 | 2.0 | 8.0 | 0.00 | 0.00 | 0.00 | 30 | 1006.4 |
| 20260503224959 | 59 | 349 | 2.0 | 8.0 | 0.00 | 0.00 | 0.00 | 30 | 1006.4 |
| 20260503224759 | 59 | 40 | 3.0 | 8.0 | 0.00 | 0.00 | 0.00 | 30 | 1006.4 |
| 20260503224559 | 59 | 299 | 3.0 | 9.0 | 0.00 | 0.00 | 0.00 | 30 | 1006.4 |
| 20260503224359 | 60 | 8 | 3.0 | 9.0 | 0.00 | 0.00 | 0.00 | 30 | 1006.4 |
| 20260503224159 | 60 | 165 | 3.0 | 9.0 | 0.00 | 0.00 | 0.00 | 30 | 1006.4 |
| 20260503223959 | 60 | 35 | 2.0 | 9.0 | 0.00 | 0.00 | 0.00 | 30 | 1006.3 |
| 20260503223759 | 60 | 262 | 2.0 | 9.0 | 0.00 | 0.00 | 0.00 | 29 | 1006.3 |
| 20260503223600 | 60 | 232 | 2.0 | 5.0 | 0.00 | 0.00 | 0.00 | 30 | 1006.3 |
| 20260503223359 | 60 | 147 | 2.0 | 7.0 | 0.00 | 0.00 | 0.00 | 30 | 1006.4 |
| 20260503223159 | 60 | 215 | 2.0 | 7.0 | 0.00 | 0.00 | 0.00 | 30 | 1006.3 |
| 20260503222959 | 60 | 27 | 2.0 | 7.0 | 0.00 | 0.00 | 0.00 | 29 | 1006.3 |
| 20260503222759 | 60 | 321 | 2.0 | 8.0 | 0.00 | 0.00 | 0.00 | 30 | 1006.3 |
| 20260503222559 | 60 | 32 | 2.0 | 8.0 | 0.00 | 0.00 | 0.00 | 29 | 1006.3 |
| 20260503222400 | 60 | 232 | 2.0 | 9.0 | 0.00 | 0.00 | 0.00 | 30 | 1006.3 |
| 20260503222200 | 60 | 323 | 2.0 | 9.0 | 0.00 | 0.00 | 0.00 | 30 | 1006.3 |
| 20260503222000 | 60 | 248 | 2.0 | 9.0 | 0.00 | 0.00 | 0.00 | 30 | 1006.2 |
| 20260503221800 | 60 | 112 | 2.0 | 9.0 | 0.00 | 0.00 | 0.00 | 30 | 1006.2 |
| 20260503221559 | 60 | 168 | 2.0 | 9.0 | 0.00 | 0.00 | 0.00 | 29 | 1006.3 |
| 20260503221400 | 60 | 89 | 2.0 | 9.0 | 0.00 | 0.00 | 0.00 | 30 | 1006.2 |
| 20260503221200 | 60 | 340 | 2.0 | 9.0 | 0.00 | 0.00 | 0.00 | 30 | 1006.2 |
| 20260503220959 | 60 | 357 | 3.0 | 9.0 | 0.00 | 0.00 | 0.00 | 30 | 1006.3 |
| 20260503220759 | 60 | 270 | 3.0 | 9.0 | 0.00 | 0.00 | 0.00 | 29 | 1006.3 |
| 20260503220557 | 60 | 307 | 3.0 | 9.0 | 0.00 | 0.00 | 0.00 | 29 | 1006.3 |
| 20260503220352 | 61 | 273 | 3.0 | 8.0 | 0.00 | 0.00 | 0.00 | 29 | 1006.2 |
| 20260503220153 | 61 | 320 | 3.0 | 8.0 | 0.00 | 0.00 | 0.00 | 29 | 1006.2 |
| 20260503215952 | 61 | 306 | 3.0 | 7.0 | 0.00 | 0.00 | 0.00 | 30 | 1006.2 |
| 20260503215753 | 61 | 24 | 3.0 | 7.0 | 0.00 | 0.00 | 0.00 | 30 | 1006.2 |
| 20260503215553 | 61 | 353 | 3.0 | 9.0 | 0.00 | 0.00 | 0.00 | 29 | 1006.2 |
| 20260503215349 | 60 | 231 | 3.0 | 9.0 | 0.00 | 0.00 | 0.00 | 30 | 1006.3 |
| 20260503215150 | 60 | 333 | 3.0 | 10.0 | 0.00 | 0.00 | 0.00 | 30 | 1006.3 |
| 20260503214950 | 60 | 21 | 4.0 | 10.0 | 0.00 | 0.00 | 0.00 | 30 | 1006.2 |
| 20260503214750 | 60 | 323 | 4.0 | 10.0 | 0.00 | 0.00 | 0.00 | 30 | 1006.3 |
| 20260503214550 | 60 | 4 | 5.0 | 10.0 | 0.00 | 0.00 | 0.00 | 30 | 1006.2 |
| 20260503214347 | 60 | 226 | 4.0 | 10.0 | 0.00 | 0.00 | 0.00 | 30 | 1006.1 |
| 20260503214147 | 60 | 245 | 4.0 | 10.0 | 0.00 | 0.00 | 0.00 | 30 | 1006.1 |
| 20260503213947 | 60 | 295 | 4.0 | 10.0 | 0.00 | 0.00 | 0.00 | 30 | 1006.1 |
| 20260503213744 | 60 | 253 | 3.0 | 9.0 | 0.00 | 0.00 | 0.00 | 30 | 1006.1 |
| 20260503213544 | 60 | 321 | 3.0 | 9.0 | 0.00 | 0.00 | 0.00 | 30 | 1006.1 |
| 20260503213344 | 60 | 235 | 3.0 | 9.0 | 0.00 | 0.00 | 0.00 | 30 | 1006.0 |
| 20260503213144 | 60 | 13 | 3.0 | 9.0 | 0.00 | 0.00 | 0.00 | 30 | 1006.0 |
| 20260503212944 | 60 | 226 | 3.0 | 10.0 | 0.00 | 0.00 | 0.00 | 31 | 1006.0 |
| 20260503212744 | 60 | 310 | 3.0 | 10.0 | 0.00 | 0.00 | 0.00 | 31 | 1006.0 |
| 20260503212544 | 60 | 45 | 3.0 | 10.0 | 0.00 | 0.00 | 0.00 | 30 | 1006.0 |
| 20260503212344 | 60 | 327 | 3.0 | 10.0 | 0.00 | 0.00 | 0.00 | 31 | 1006.0 |
| 20260503212145 | 60 | 331 | 3.0 | 10.0 | 0.00 | 0.00 | 0.00 | 30 | 1006.0 |
| 20260503211944 | 60 | 341 | 3.0 | 9.0 | 0.00 | 0.00 | 0.00 | 31 | 1006.0 |
| 20260503211744 | 60 | 250 | 3.0 | 9.0 | 0.00 | 0.00 | 0.00 | 30 | 1005.9 |
| 20260503211545 | 60 | 8 | 2.0 | 9.0 | 0.00 | 0.00 | 0.00 | 31 | 1006.0 |
| 20260503211240 | 60 | 246 | 3.0 | 7.0 | 0.00 | 0.00 | 0.00 | 31 | 1006.0 |
| 20260503210945 | 60 | 184 | 3.0 | 7.0 | 0.00 | 0.00 | 0.00 | 31 | 1006.1 |
| 20260503210744 | 60 | 29 | 3.0 | 7.0 | 0.00 | 0.00 | 0.00 | 31 | 1006.0 |
| 20260503210544 | 60 | 333 | 3.0 | 7.0 | 0.00 | 0.00 | 0.00 | 31 | 1006.0 |
| 20260503210344 | 60 | 256 | 3.0 | 9.0 | 0.00 | 0.00 | 0.00 | 30 | 1005.9 |
| 20260503210144 | 60 | 28 | 3.0 | 9.0 | 0.00 | 0.00 | 0.00 | 31 | 1006.1 |
| 20260503205942 | 60 | 329 | 3.0 | 9.0 | 0.00 | 0.00 | 0.00 | 30 | 1006.0 |
| 20260503205742 | 60 | 64 | 3.0 | 10.0 | 0.00 | 0.00 | 0.00 | 31 | 1006.0 |
| 20260503205538 | 60 | 341 | 3.0 | 10.0 | 0.00 | 0.00 | 0.00 | 31 | 1006.0 |
| 20260503205339 | 59 | 337 | 3.0 | 10.0 | 0.00 | 0.00 | 0.00 | 32 | 1006.0 |
| 20260503205234 | 60 | 59 | 3.0 | 10.0 | 0.00 | 0.00 | 0.00 | 30 | 1006.0 |
| 20260503204936 | 60 | 31 | 3.0 | 10.0 | 0.00 | 0.00 | 0.00 | 30 | 1006.0 |
| 20260503204736 | 60 | 250 | 3.0 | 9.0 | 0.00 | 0.00 | 0.00 | 31 | 1005.9 |
| 20260503204535 | 60 | 346 | 3.0 | 9.0 | 0.00 | 0.00 | 0.00 | 31 | 1006.0 |
| 20260503204336 | 60 | 357 | 3.0 | 9.0 | 0.00 | 0.00 | 0.00 | 31 | 1005.9 |
| 20260503204136 | 60 | 304 | 3.0 | 9.0 | 0.00 | 0.00 | 0.00 | 31 | 1005.9 |
| 20260503203936 | 60 | 283 | 3.0 | 9.0 | 0.00 | 0.00 | 0.00 | 31 | 1006.0 |
| 20260503203736 | 60 | 237 | 3.0 | 8.0 | 0.00 | 0.00 | 0.00 | 32 | 1005.9 |
| 20260503203537 | 59 | 77 | 3.0 | 7.0 | 0.00 | 0.00 | 0.00 | 31 | 1005.9 |
| 20260503203336 | 59 | 71 | 3.0 | 7.0 | 0.00 | 0.00 | 0.00 | 32 | 1006.0 |
| 20260503203234 | 59 | 327 | 3.0 | 7.0 | 0.00 | 0.00 | 0.00 | 33 | 1006.0 |
| 20260503202936 | 59 | 9 | 3.0 | 9.0 | 0.00 | 0.00 | 0.00 | 33 | 1006.0 |
| 20260503202736 | 59 | 259 | 3.0 | 9.0 | 0.00 | 0.00 | 0.00 | 32 | 1006.0 |
| 20260503202537 | 59 | 111 | 3.0 | 9.0 | 0.00 | 0.00 | 0.00 | 32 | 1005.9 |
| 20260503202335 | 59 | 354 | 3.0 | 9.0 | 0.00 | 0.00 | 0.00 | 33 | 1006.2 |
| 20260503202234 | 59 | 161 | 4.0 | 9.0 | 0.00 | 0.00 | 0.00 | 32 | 1006.1 |
| 20260503201937 | 59 | 15 | 4.0 | 9.0 | 0.00 | 0.00 | 0.00 | 33 | 1006.0 |
| 20260503201736 | 59 | 319 | 4.0 | 9.0 | 0.00 | 0.00 | 0.00 | 32 | 1006.0 |
| 20260503201536 | 59 | 45 | 3.0 | 10.0 | 0.00 | 0.00 | 0.00 | 32 | 1006.1 |
| 20260503201336 | 59 | 277 | 4.0 | 11.0 | 0.00 | 0.00 | 0.00 | 33 | 1006.1 |
| 20260503201136 | 59 | 343 | 3.0 | 11.0 | 0.00 | 0.00 | 0.00 | 33 | 1006.1 |
| 20260503200936 | 59 | 238 | 3.0 | 11.0 | 0.00 | 0.00 | 0.00 | 34 | 1006.0 |
| 20260503200736 | 59 | 324 | 4.0 | 11.0 | 0.00 | 0.00 | 0.00 | 33 | 1006.1 |
| 20260503200537 | 59 | 97 | 3.0 | 11.0 | 0.00 | 0.00 | 0.00 | 33 | 1006.2 |
| 20260503200337 | 59 | 217 | 3.0 | 12.0 | 0.00 | 0.00 | 0.00 | 34 | 1006.1 |
| 20260503200136 | 59 | 17 | 3.0 | 12.0 | 0.00 | 0.00 | 0.00 | 33 | 1006.1 |
| 20260503195937 | 59 | 285 | 4.0 | 13.0 | 0.00 | 0.00 | 0.00 | 34 | 1006.0 |
| 20260503195734 | 59 | 241 | 4.0 | 13.0 | 0.00 | 0.00 | 0.00 | 34 | 1006.0 |
| 20260503195534 | 58 | 47 | 4.0 | 13.0 | 0.00 | 0.00 | 0.00 | 34 | 1006.0 |
| 20260503195333 | 58 | 23 | 3.0 | 13.0 | 0.00 | 0.00 | 0.00 | 34 | 1006.2 |
| 20260503195134 | 58 | 307 | 3.0 | 13.0 | 0.00 | 0.00 | 0.00 | 34 | 1006.3 |
| 20260503194934 | 58 | 225 | 3.0 | 9.0 | 0.00 | 0.00 | 0.00 | 35 | 1006.2 |
| 20260503194730 | 58 | 326 | 3.0 | 9.0 | 0.00 | 0.00 | 0.00 | 35 | 1006.2 |
| 20260503194530 | 58 | 313 | 4.0 | 9.0 | 0.00 | 0.00 | 0.00 | 35 | 1006.3 |
| 20260503194331 | 58 | 219 | 4.0 | 9.0 | 0.00 | 0.00 | 0.00 | 34 | 1006.3 |
| 20260503194132 | 58 | 317 | 4.0 | 9.0 | 0.00 | 0.00 | 0.00 | 35 | 1006.4 |
| 20260503193931 | 58 | 324 | 4.0 | 9.0 | 0.00 | 0.00 | 0.00 | 34 | 1006.3 |
| 20260503193731 | 58 | 44 | 3.0 | 8.0 | 0.00 | 0.00 | 0.00 | 34 | 1006.4 |
| 20260503193528 | 58 | 352 | 3.0 | 8.0 | 0.00 | 0.00 | 0.00 | 36 | 1006.4 |
| 20260503193325 | 58 | 47 | 3.0 | 9.0 | 0.00 | 0.00 | 0.00 | 35 | 1006.5 |
| 20260503193229 | 58 | 25 | 3.0 | 9.0 | 0.00 | 0.00 | 0.00 | 35 | 1006.4 |
| 20260503192925 | 58 | 102 | 4.0 | 11.0 | 0.00 | 0.00 | 0.00 | 35 | 1006.4 |
| 20260503192725 | 58 | 214 | 4.0 | 11.0 | 0.00 | 0.00 | 0.00 | 35 | 1006.5 |
| 20260503192525 | 57 | 41 | 4.0 | 11.0 | 0.00 | 0.00 | 0.00 | 35 | 1006.5 |
| 20260503192326 | 57 | 329 | 4.0 | 11.0 | 0.00 | 0.00 | 0.00 | 35 | 1006.4 |
| 20260503191925 | 57 | 257 | 4.0 | 9.0 | 0.00 | 0.00 | 0.00 | 36 | 1006.4 |
| 20260503191725 | 57 | 108 | 4.0 | 9.0 | 0.00 | 0.00 | 0.00 | 36 | 1006.3 |
| 20260503191525 | 57 | 287 | 4.0 | 10.0 | 0.00 | 0.00 | 0.00 | 36 | 1006.5 |
| 20260503191324 | 57 | 250 | 4.0 | 10.0 | 0.00 | 0.00 | 0.00 | 36 | 1006.7 |
| 20260503191229 | 57 | 45 | 3.0 | 13.0 | 0.00 | 0.00 | 0.00 | 36 | 1006.5 |
| 20260503190925 | 57 | 39 | 3.0 | 13.0 | 0.00 | 0.00 | 0.00 | 37 | 1006.6 |
| 20260503190726 | 57 | 21 | 3.0 | 13.0 | 0.00 | 0.00 | 0.00 | 36 | 1006.6 |
| 20260503190525 | 57 | 36 | 3.0 | 13.0 | 0.00 | 0.00 | 0.00 | 35 | 1006.7 |
| 20260503190325 | 57 | 33 | 4.0 | 13.0 | 0.00 | 0.00 | 0.00 | 36 | 1006.7 |
| 20260503185925 | 57 | 238 | 4.0 | 12.0 | 0.00 | 0.00 | 0.00 | 36 | 1006.6 |